Time;durP1;ratioP1;P1;durP2;ratioP2;P2;SDS_P1;SDS_P2;PMS_P1;PMS_P2;Temp;Humidity;BMP_temperature;BMP_pressure;BME280_temperature;BME280_humidity;BME280_pressure;Samples;Min_cycle;Max_cycle;Signal;HPM_P1;HPM_P2
2022/05/31 00:01:28;;;;;;;1.85;0.93;;;10.90;99.90;;;;;;5021784;28;20075;-58
2022/05/31 00:03:54;;;;;;;1.23;0.85;;;10.90;99.90;;;;;;5010983;28;20489;-58
2022/05/31 00:06:20;;;;;;;1.25;0.73;;;10.90;99.90;;;;;;5009428;28;20072;-57
2022/05/31 00:08:46;;;;;;;2.72;1.00;;;10.80;99.90;;;;;;5013987;28;20026;-57
2022/05/31 00:11:12;;;;;;;2.10;0.93;;;10.90;99.90;;;;;;5015125;28;20041;-57
2022/05/31 00:13:37;;;;;;;3.40;1.00;;;10.90;99.90;;;;;;5015704;28;20045;-57
2022/05/31 00:16:03;;;;;;;2.55;0.88;;;10.90;99.90;;;;;;5008948;28;20030;-57
2022/05/31 00:18:29;;;;;;;2.85;0.88;;;11.00;99.90;;;;;;5010677;28;20030;-58
2022/05/31 00:20:55;;;;;;;1.48;0.77;;;11.20;99.90;;;;;;5008352;28;20071;-57
2022/05/31 00:23:21;;;;;;;1.42;0.68;;;11.10;99.90;;;;;;5015610;28;20390;-57
2022/05/31 00:25:47;;;;;;;6.70;1.17;;;11.10;99.90;;;;;;5017716;28;20076;-57
2022/05/31 00:28:13;;;;;;;3.65;1.10;;;11.10;99.90;;;;;;5010788;28;20034;-58
2022/05/31 00:30:39;;;;;;;2.60;0.93;;;11.00;99.90;;;;;;5016862;28;20532;-58
2022/05/31 00:33:06;;;;;;;2.05;0.93;;;11.00;99.90;;;;;;5014007;28;20075;-58
2022/05/31 00:35:38;;;;;;;4.97;1.70;;;10.90;99.90;;;;;;5010126;28;20056;-58
2022/05/31 00:38:05;;;;;;;1.48;0.80;;;10.90;99.90;;;;;;5007627;28;20053;-58
2022/05/31 00:40:33;;;;;;;2.65;0.80;;;10.90;99.90;;;;;;5011280;28;20413;-58
2022/05/31 00:43:02;;;;;;;2.03;1.10;;;10.90;99.90;;;;;;5010067;28;20026;-57
2022/05/31 00:46:02;;;;;;;2.80;0.90;;;10.90;99.90;;;;;;5013547;28;20022;-58
2022/05/31 00:48:35;;;;;;;3.40;0.88;;;10.90;99.90;;;;;;5000697;28;20057;-57
2022/05/31 00:51:08;;;;;;;3.65;1.20;;;10.90;99.90;;;;;;5010459;28;20049;-57
2022/05/31 00:53:45;;;;;;;1.42;1.10;;;10.90;99.90;;;;;;5006973;28;20026;-57
2022/05/31 00:56:19;;;;;;;2.15;0.90;;;10.90;99.90;;;;;;5018100;28;20083;-58
2022/05/31 00:59:00;;;;;;;5.88;1.40;;;10.90;99.90;;;;;;5014498;28;20028;-57
2022/05/31 01:01:29;;;;;;;2.05;1.00;;;10.80;99.90;;;;;;5011961;28;20033;-57
2022/05/31 01:03:56;;;;;;;4.00;1.00;;;10.80;99.90;;;;;;5011600;28;20104;-57
2022/05/31 01:06:21;;;;;;;2.20;1.10;;;10.70;99.90;;;;;;5008348;28;20025;-57
2022/05/31 01:08:47;;;;;;;4.57;1.27;;;10.60;99.90;;;;;;5010327;28;20114;-56
2022/05/31 01:11:21;;;;;;;1.25;0.82;;;10.60;99.90;;;;;;5016496;28;20029;-57
2022/05/31 01:13:47;;;;;;;4.18;0.95;;;10.50;99.90;;;;;;5014320;28;20027;-57
2022/05/31 01:16:14;;;;;;;2.20;0.70;;;10.40;99.90;;;;;;5010179;28;20041;-57
2022/05/31 01:18:39;;;;;;;3.03;1.17;;;10.40;99.90;;;;;;5023426;28;20032;-57
2022/05/31 01:21:06;;;;;;;1.88;0.80;;;10.30;99.90;;;;;;5009072;28;20390;-56
2022/05/31 01:23:58;;;;;;;3.05;0.80;;;10.30;99.90;;;;;;5009706;28;20029;-56
2022/05/31 01:26:42;;;;;;;3.72;1.13;;;10.20;99.90;;;;;;5003638;28;20124;-57
2022/05/31 01:29:27;;;;;;;2.70;0.93;;;10.20;99.90;;;;;;5011509;28;20033;-57
2022/05/31 01:31:55;;;;;;;2.35;1.05;;;10.10;99.90;;;;;;5009239;28;20493;-57
2022/05/31 01:34:28;;;;;;;3.00;1.08;;;10.20;99.90;;;;;;5009816;28;20544;-57
2022/05/31 01:36:56;;;;;;;1.95;1.23;;;10.10;99.90;;;;;;5014768;28;20112;-57
2022/05/31 01:39:24;;;;;;;2.60;1.00;;;10.10;99.90;;;;;;5007654;28;20594;-56
2022/05/31 01:41:56;;;;;;;3.90;1.27;;;10.10;99.90;;;;;;5016187;28;20038;-58
2022/05/31 01:44:26;;;;;;;3.95;0.93;;;10.10;99.90;;;;;;5016028;28;20586;-58
2022/05/31 01:46:54;;;;;;;1.80;1.02;;;10.00;99.90;;;;;;5009778;28;20168;-58
2022/05/31 01:49:22;;;;;;;1.67;1.10;;;9.90;99.90;;;;;;5017355;28;20495;-57
2022/05/31 01:51:49;;;;;;;1.17;0.60;;;9.90;99.90;;;;;;5006926;28;20050;-57
2022/05/31 01:54:17;;;;;;;0.73;0.73;;;10.00;99.90;;;;;;5008809;28;20037;-57
2022/05/31 01:56:46;;;;;;;2.38;0.82;;;10.00;99.90;;;;;;5013865;28;20033;-57
2022/05/31 01:59:12;;;;;;;1.85;1.00;;;9.90;99.90;;;;;;5010338;28;20532;-57
2022/05/31 02:01:39;;;;;;;1.17;0.98;;;10.00;99.90;;;;;;5010488;28;20061;-57
2022/05/31 02:04:05;;;;;;;4.32;1.10;;;9.90;99.90;;;;;;5017638;28;20080;-58
2022/05/31 02:06:35;;;;;;;2.35;0.95;;;10.00;99.90;;;;;;5009510;28;20109;-57
2022/05/31 02:09:04;;;;;;;1.35;0.70;;;10.00;99.90;;;;;;5009096;28;20474;-58
2022/05/31 02:11:29;;;;;;;2.35;1.02;;;10.10;99.90;;;;;;5007332;28;20161;-57
2022/05/31 02:13:56;;;;;;;2.03;0.95;;;10.20;99.90;;;;;;5010368;28;20109;-57
2022/05/31 02:16:22;;;;;;;4.00;0.98;;;10.20;99.90;;;;;;5011078;28;20489;-56
2022/05/31 02:21:35;;;;;;;3.13;2.47;;;10.30;99.90;;;;;;5016116;28;20041;-57
2022/05/31 02:24:21;;;;;;;3.08;1.55;;;10.40;99.90;;;;;;5008827;28;20141;-57
2022/05/31 02:26:48;;;;;;;5.50;1.50;;;10.40;99.90;;;;;;5011383;28;20513;-58
2022/05/31 02:29:17;;;;;;;3.05;1.23;;;10.60;99.90;;;;;;5013230;28;20033;-58
2022/05/31 02:31:43;;;;;;;3.30;1.13;;;10.60;99.90;;;;;;5017067;28;20061;-58
2022/05/31 02:34:11;;;;;;;3.00;1.23;;;10.60;99.90;;;;;;5010866;28;20113;-58
2022/05/31 02:36:37;;;;;;;2.90;1.35;;;10.60;99.90;;;;;;5011985;28;20075;-58
2022/05/31 02:39:04;;;;;;;4.95;1.60;;;10.60;99.90;;;;;;5010842;28;20105;-58
2022/05/31 02:41:31;;;;;;;3.33;1.60;;;10.60;99.90;;;;;;5013520;28;20030;-58
2022/05/31 02:43:58;;;;;;;2.78;1.45;;;10.70;99.90;;;;;;5014474;28;20080;-57
2022/05/31 02:46:24;;;;;;;4.60;1.88;;;10.80;99.90;;;;;;5011609;28;20033;-58
2022/05/31 02:48:50;;;;;;;3.47;1.20;;;10.80;99.90;;;;;;5015710;28;20417;-58
2022/05/31 02:51:16;;;;;;;3.42;1.40;;;10.80;99.90;;;;;;5011157;28;20091;-57
2022/05/31 02:53:41;;;;;;;3.45;1.92;;;10.80;99.90;;;;;;5017553;28;20056;-58
2022/05/31 02:56:08;;;;;;;4.40;2.53;;;10.80;99.90;;;;;;5009562;28;20022;-57
2022/05/31 02:58:34;;;;;;;5.90;2.50;;;10.80;99.90;;;;;;5011913;28;20117;-57
2022/05/31 03:01:00;;;;;;;4.95;3.10;;;10.80;99.90;;;;;;5022193;28;20112;-56
2022/05/31 03:03:27;;;;;;;6.93;3.33;;;10.70;99.90;;;;;;5017387;28;20540;-57
2022/05/31 03:05:53;;;;;;;5.55;2.60;;;10.60;99.90;;;;;;5011784;28;20393;-57
2022/05/31 03:08:19;;;;;;;4.70;3.13;;;10.50;99.90;;;;;;5009959;28;20112;-57
2022/05/31 03:10:52;;;;;;;5.13;3.15;;;10.40;99.90;;;;;;5018004;28;20026;-57
2022/05/31 03:13:22;;;;;;;4.30;2.53;;;10.30;99.90;;;;;;5003598;28;20037;-58
2022/05/31 03:15:48;;;;;;;3.88;2.45;;;10.30;99.90;;;;;;5011124;28;20133;-58
2022/05/31 03:18:18;;;;;;;6.97;2.35;;;10.20;99.90;;;;;;5010989;28;20432;-58
2022/05/31 03:20:54;;;;;;;4.90;2.33;;;10.20;99.90;;;;;;5015402;28;20040;-58
2022/05/31 03:23:32;;;;;;;3.13;1.70;;;10.30;99.90;;;;;;5012491;28;20025;-58
2022/05/31 03:26:00;;;;;;;2.70;1.52;;;10.30;99.90;;;;;;5014625;28;20057;-58
2022/05/31 03:28:26;;;;;;;2.92;1.42;;;10.40;99.90;;;;;;5009749;28;20038;-57
2022/05/31 03:30:52;;;;;;;2.63;1.40;;;10.40;99.90;;;;;;5001810;28;20097;-57
2022/05/31 03:33:18;;;;;;;1.65;1.00;;;10.40;99.90;;;;;;5011858;28;20037;-57
2022/05/31 03:35:44;;;;;;;4.13;1.02;;;10.40;99.90;;;;;;5005623;28;20034;-59
2022/05/31 03:38:10;;;;;;;1.95;1.27;;;10.50;99.90;;;;;;5008962;28;20026;-57
2022/05/31 03:43:20;;;;;;;1.30;0.90;;;10.40;99.90;;;;;;5009387;28;20096;-57
2022/05/31 03:45:46;;;;;;;1.70;0.93;;;10.40;99.90;;;;;;5011142;28;20484;-57
2022/05/31 03:48:12;;;;;;;3.97;1.50;;;10.40;99.90;;;;;;5010956;28;20040;-57
2022/05/31 03:50:39;;;;;;;1.65;1.05;;;10.50;99.90;;;;;;5019352;28;20080;-58
2022/05/31 03:53:07;;;;;;;1.35;0.80;;;10.50;99.90;;;;;;5010668;28;20478;-57
2022/05/31 03:55:36;;;;;;;2.25;1.00;;;10.50;99.90;;;;;;5018790;28;20034;-57
2022/05/31 03:58:03;;;;;;;4.18;1.02;;;10.50;99.90;;;;;;5010869;28;20030;-58
2022/05/31 04:00:29;;;;;;;0.75;0.65;;;10.60;99.90;;;;;;5009725;28;20117;-57
2022/05/31 04:02:57;;;;;;;1.73;0.88;;;10.50;99.90;;;;;;5011159;28;20471;-57
2022/05/31 04:05:24;;;;;;;3.03;1.05;;;10.50;99.90;;;;;;5009489;28;20378;-58
2022/05/31 04:07:54;;;;;;;3.47;0.90;;;10.50;99.90;;;;;;5012656;28;20030;-57
2022/05/31 04:10:20;;;;;;;2.80;1.23;;;10.50;99.90;;;;;;5011256;28;20445;-57
2022/05/31 04:12:47;;;;;;;2.05;1.13;;;10.50;99.90;;;;;;5017248;28;20385;-57
2022/05/31 04:15:13;;;;;;;2.20;1.20;;;10.50;99.90;;;;;;5008922;28;20056;-57
2022/05/31 04:17:39;;;;;;;2.28;0.90;;;10.40;99.90;;;;;;5010436;28;20398;-57
2022/05/31 04:20:05;;;;;;;0.77;0.73;;;10.30;99.90;;;;;;5010032;28;20033;-57
2022/05/31 04:22:32;;;;;;;2.63;0.88;;;10.30;99.90;;;;;;5014116;28;20370;-58
2022/05/31 04:25:01;;;;;;;1.73;0.75;;;10.30;99.90;;;;;;5016333;28;20026;-57
2022/05/31 04:27:28;;;;;;;1.45;0.65;;;10.40;99.90;;;;;;5009699;28;20038;-57
2022/05/31 04:29:54;;;;;;;2.88;0.90;;;10.50;99.90;;;;;;5010163;28;20044;-57
2022/05/31 04:32:21;;;;;;;2.28;1.05;;;10.60;99.90;;;;;;5003365;28;20502;-57
2022/05/31 04:34:47;;;;;;;1.52;0.80;;;10.60;99.90;;;;;;5011211;28;20429;-57
2022/05/31 04:37:14;;;;;;;3.08;0.80;;;10.70;99.90;;;;;;5009555;28;20125;-58
2022/05/31 04:39:39;;;;;;;1.52;0.50;;;10.70;99.90;;;;;;5021182;28;20026;-57
2022/05/31 04:42:08;;;;;;;1.25;0.88;;;10.80;99.90;;;;;;5013544;28;20021;-57
2022/05/31 04:44:34;;;;;;;1.20;0.70;;;10.90;99.90;;;;;;5012867;28;20026;-57
2022/05/31 04:46:59;;;;;;;3.38;0.80;;;10.80;99.90;;;;;;5010187;28;20383;-58
2022/05/31 04:49:25;;;;;;;1.30;0.57;;;10.80;99.90;;;;;;5008251;28;20029;-58
2022/05/31 04:51:51;;;;;;;2.85;1.27;;;10.90;99.90;;;;;;5010052;28;20120;-58
2022/05/31 04:54:17;;;;;;;4.65;1.63;;;10.90;99.90;;;;;;5010063;28;20467;-58
2022/05/31 04:56:44;;;;;;;3.53;1.77;;;10.80;99.90;;;;;;5012984;28;20128;-58
2022/05/31 04:59:10;;;;;;;3.10;2.28;;;10.70;99.90;;;;;;5006819;28;20398;-57
2022/05/31 05:01:37;;;;;;;4.85;2.03;;;10.60;99.90;;;;;;5004471;28;20040;-57
2022/05/31 05:04:04;;;;;;;5.22;2.20;;;10.70;99.90;;;;;;5014620;28;20112;-58
2022/05/31 05:06:29;;;;;;;3.65;2.30;;;10.80;99.90;;;;;;5008304;28;20034;-57
2022/05/31 05:08:56;;;;;;;4.75;2.28;;;10.70;99.90;;;;;;5012121;28;20026;-58
2022/05/31 05:11:23;;;;;;;3.67;2.60;;;10.70;99.90;;;;;;5005899;28;20034;-58
2022/05/31 05:13:50;;;;;;;4.90;2.42;;;10.70;99.90;;;;;;5012304;28;20108;-57
2022/05/31 05:16:17;;;;;;;6.78;2.30;;;10.70;99.90;;;;;;5003993;28;20033;-58
2022/05/31 05:18:46;;;;;;;5.63;2.78;;;10.70;99.90;;;;;;5012081;28;20061;-58
2022/05/31 05:21:13;;;;;;;9.52;3.40;;;10.70;99.90;;;;;;5005486;28;20087;-59
2022/05/31 05:23:39;;;;;;;4.03;1.95;;;10.60;99.90;;;;;;5009701;28;20029;-60
2022/05/31 05:26:05;;;;;;;5.25;1.50;;;10.40;99.90;;;;;;5009524;28;20022;-59
2022/05/31 05:31:32;;;;;;;5.10;1.40;;;10.10;99.90;;;;;;5010568;28;20458;-59
2022/05/31 05:34:00;;;;;;;3.50;1.08;;;10.10;99.90;;;;;;5011366;28;20022;-62
2022/05/31 05:36:26;;;;;;;6.43;1.73;;;10.00;99.90;;;;;;5007276;28;20033;-58
2022/05/31 05:38:52;;;;;;;4.60;1.45;;;10.00;99.90;;;;;;5013833;28;20068;-58
2022/05/31 05:41:20;;;;;;;6.10;1.67;;;10.00;99.90;;;;;;5012360;28;20504;-59
2022/05/31 05:43:46;;;;;;;6.20;1.75;;;10.00;99.90;;;;;;5008632;28;20363;-59
2022/05/31 05:46:18;;;;;;;5.72;1.30;;;9.90;99.90;;;;;;5008602;28;20029;-59
2022/05/31 05:48:44;;;;;;;3.15;1.35;;;10.00;99.90;;;;;;5007662;28;20471;-59
2022/05/31 05:51:12;;;;;;;5.40;1.50;;;10.00;99.90;;;;;;5012851;28;20394;-57
2022/05/31 05:53:38;;;;;;;4.88;1.13;;;10.00;99.90;;;;;;5025910;28;20021;-58
2022/05/31 05:56:04;;;;;;;2.97;1.35;;;10.00;99.90;;;;;;5007885;28;20040;-58
2022/05/31 05:58:30;;;;;;;4.40;1.42;;;10.00;99.90;;;;;;5015533;28;20123;-58
2022/05/31 06:00:56;;;;;;;5.07;2.10;;;9.90;99.90;;;;;;5016778;28;20030;-59
2022/05/31 06:03:27;;;;;;;5.43;1.63;;;9.90;99.90;;;;;;5007007;28;20041;-58
2022/05/31 06:05:54;;;;;;;6.28;1.67;;;9.90;99.90;;;;;;5014621;28;20170;-58
2022/05/31 06:08:28;;;;;;;3.35;1.23;;;9.90;99.90;;;;;;5013100;28;20037;-58
2022/05/31 06:10:59;;;;;;;5.88;1.33;;;9.90;99.90;;;;;;5014608;28;20072;-59
2022/05/31 06:13:30;;;;;;;4.77;0.90;;;9.80;99.90;;;;;;5008849;28;20033;-58
2022/05/31 06:15:56;;;;;;;2.45;1.35;;;9.90;99.90;;;;;;5014822;28;20297;-59
2022/05/31 06:18:28;;;;;;;7.38;1.33;;;10.00;99.90;;;;;;5015066;28;20030;-59
2022/05/31 06:20:58;;;;;;;4.85;1.05;;;10.00;99.90;;;;;;5012895;28;20030;-60
2022/05/31 06:23:24;;;;;;;2.00;1.23;;;10.00;99.90;;;;;;5010504;28;20030;-59
2022/05/31 06:25:50;;;;;;;4.68;1.77;;;10.10;99.90;;;;;;5015246;28;20018;-61
2022/05/31 06:28:16;;;;;;;3.08;0.90;;;10.20;99.90;;;;;;5018431;28;20528;-60
2022/05/31 06:30:42;;;;;;;2.60;1.08;;;10.20;99.90;;;;;;5023246;28;20109;-57
2022/05/31 06:33:07;;;;;;;2.67;1.40;;;10.40;99.90;;;;;;5012677;28;20046;-57
2022/05/31 06:35:33;;;;;;;4.45;1.42;;;10.50;99.90;;;;;;5016586;28;20034;-59
2022/05/31 06:37:59;;;;;;;7.43;1.60;;;10.50;99.90;;;;;;5020128;28;20084;-58
2022/05/31 06:40:25;;;;;;;5.78;1.50;;;10.60;99.90;;;;;;5010330;28;20073;-58
2022/05/31 06:42:51;;;;;;;10.52;2.38;;;10.60;99.90;;;;;;5016268;28;20454;-58
2022/05/31 06:45:17;;;;;;;5.05;2.00;;;10.70;99.90;;;;;;5011127;28;20034;-59
2022/05/31 06:47:42;;;;;;;7.82;1.45;;;10.70;99.90;;;;;;5020464;28;20042;-58
2022/05/31 06:50:08;;;;;;;5.32;2.28;;;10.70;99.90;;;;;;5010263;28;20030;-58
2022/05/31 06:58:03;;;;;;;3.92;1.27;;;11.00;99.90;;;;;;5011388;28;20080;-57
2022/05/31 07:00:29;;;;;;;2.05;1.42;;;11.10;99.90;;;;;;5025018;28;20033;-58
2022/05/31 07:02:55;;;;;;;3.03;1.20;;;11.10;99.90;;;;;;5001387;28;20037;-59
2022/05/31 07:05:22;;;;;;;6.20;2.20;;;11.10;99.90;;;;;;5009943;28;20030;-58
2022/05/31 07:07:51;;;;;;;2.03;1.23;;;11.20;99.90;;;;;;5018408;28;20084;-58
2022/05/31 07:10:19;;;;;;;2.53;1.77;;;11.40;99.90;;;;;;5017752;28;20029;-58
2022/05/31 07:12:44;;;;;;;1.73;1.38;;;11.60;99.90;;;;;;5006189;28;20033;-59
2022/05/31 07:15:11;;;;;;;7.00;2.15;;;11.70;99.90;;;;;;5012091;28;20112;-58
2022/05/31 07:17:37;;;;;;;1.33;1.10;;;12.00;99.90;;;;;;5015609;28;20108;-59
2022/05/31 07:20:05;;;;;;;2.47;1.40;;;12.10;99.90;;;;;;5013987;28;20096;-59
2022/05/31 07:22:31;;;;;;;2.42;1.20;;;12.20;99.90;;;;;;5011509;28;20029;-58
2022/05/31 07:24:57;;;;;;;2.63;1.20;;;12.20;99.90;;;;;;5005437;28;20026;-59
2022/05/31 07:27:24;;;;;;;2.13;1.23;;;12.10;99.90;;;;;;5007878;28;20490;-60
2022/05/31 07:29:50;;;;;;;3.50;1.48;;;12.30;99.90;;;;;;5019775;28;20034;-59
2022/05/31 07:32:16;;;;;;;2.63;1.38;;;12.20;99.90;;;;;;5008649;28;20049;-58
2022/05/31 07:34:42;;;;;;;2.85;1.42;;;12.10;99.90;;;;;;5014304;28;20044;-58
2022/05/31 07:37:08;;;;;;;1.85;1.25;;;12.00;99.90;;;;;;5017956;28;20386;-59
2022/05/31 07:39:34;;;;;;;6.95;1.88;;;12.00;99.90;;;;;;5008699;28;20034;-59
2022/05/31 07:42:00;;;;;;;3.03;1.20;;;11.90;99.90;;;;;;5012822;28;20021;-59
2022/05/31 07:44:26;;;;;;;2.92;1.40;;;11.90;99.90;;;;;;5007140;28;20489;-59
2022/05/31 07:46:53;;;;;;;1.75;1.13;;;11.80;99.90;;;;;;5022729;28;20021;-58
2022/05/31 07:49:20;;;;;;;3.72;1.13;;;11.80;99.90;;;;;;5010049;28;20445;-60
2022/05/31 07:51:46;;;;;;;3.38;1.00;;;11.70;99.90;;;;;;5013054;28;20393;-58
2022/05/31 07:54:12;;;;;;;2.88;1.50;;;11.60;99.90;;;;;;5013092;28;20045;-58
2022/05/31 07:56:38;;;;;;;1.25;0.90;;;11.60;99.90;;;;;;5010061;28;20389;-58
2022/05/31 07:59:04;;;;;;;0.82;0.70;;;11.70;99.90;;;;;;5009762;28;20040;-58
2022/05/31 08:01:30;;;;;;;5.53;1.10;;;11.80;99.90;;;;;;5016624;28;20041;-58
2022/05/31 08:03:56;;;;;;;1.27;0.60;;;11.90;99.90;;;;;;5019125;28;20013;-57
2022/05/31 08:06:27;;;;;;;2.17;0.60;;;12.10;99.90;;;;;;5012994;28;20048;-58
2022/05/31 08:08:53;;;;;;;3.73;0.73;;;12.20;99.90;;;;;;5016852;28;20021;-58
2022/05/31 08:11:26;;;;;;;1.50;0.82;;;12.40;99.90;;;;;;5015628;28;20333;-58
2022/05/31 08:13:53;;;;;;;2.72;0.85;;;12.50;99.90;;;;;;5016193;28;20029;-59
2022/05/31 08:16:21;;;;;;;6.88;1.17;;;12.70;99.90;;;;;;5011377;28;20128;-58
2022/05/31 08:18:48;;;;;;;2.25;0.90;;;13.00;99.90;;;;;;5016313;28;20034;-58
2022/05/31 08:21:21;;;;;;;2.70;1.00;;;13.30;99.90;;;;;;5010346;28;20033;-59
2022/05/31 08:23:47;;;;;;;4.53;0.80;;;13.70;99.90;;;;;;5007392;28;20030;-59
2022/05/31 08:26:13;;;;;;;5.57;0.60;;;14.00;99.90;;;;;;5010423;28;20037;-59
2022/05/31 08:28:39;;;;;;;4.00;0.98;;;14.40;99.70;;;;;;5010829;28;20034;-58
2022/05/31 08:31:10;;;;;;;2.10;0.75;;;14.70;99.90;;;;;;5016463;28;20041;-58
2022/05/31 08:33:37;;;;;;;7.75;0.90;;;15.00;97.80;;;;;;5017685;28;20025;-58
2022/05/31 08:36:03;;;;;;;5.55;1.13;;;15.10;99.20;;;;;;5019716;28;20115;-58
2022/05/31 08:38:30;;;;;;;4.07;0.80;;;15.20;98.60;;;;;;5012069;28;20378;-58
2022/05/31 08:41:13;;;;;;;4.32;0.82;;;15.20;98.00;;;;;;5018036;28;20430;-58
2022/05/31 08:43:45;;;;;;;6.32;0.85;;;15.10;97.40;;;;;;5003511;28;20060;-58
2022/05/31 08:46:33;;;;;;;3.65;0.90;;;15.00;97.90;;;;;;5007676;28;20437;-58
2022/05/31 08:49:04;;;;;;;2.45;0.50;;;14.90;99.20;;;;;;5016187;28;20064;-59
2022/05/31 08:52:04;;;;;;;2.85;0.85;;;14.90;98.90;;;;;;5019128;28;20485;-58
2022/05/31 08:57:57;;;;;;;7.85;1.13;;;14.60;96.50;;;;;;5000127;28;20088;-59
2022/05/31 09:00:31;;;;;;;4.40;1.33;;;14.60;97.50;;;;;;5005422;28;20026;-58
2022/05/31 09:03:08;;;;;;;1.10;0.60;;;14.60;99.30;;;;;;5012461;28;20033;-59
2022/05/31 09:05:45;;;;;;;4.20;0.70;;;14.50;97.30;;;;;;5014686;28;20025;-59
2022/05/31 09:08:32;;;;;;;4.30;0.68;;;14.50;98.00;;;;;;5007779;28;20088;-59
2022/05/31 09:11:11;;;;;;;1.38;0.60;;;14.60;95.20;;;;;;5015367;28;20393;-60
2022/05/31 09:14:07;;;;;;;6.30;0.60;;;14.50;94.40;;;;;;5013420;28;20037;-59
2022/05/31 09:16:39;;;;;;;9.77;1.00;;;14.70;94.80;;;;;;5023157;28;20049;-57
2022/05/31 09:19:09;;;;;;;4.22;0.70;;;15.00;93.30;;;;;;5010045;28;20125;-56
2022/05/31 09:21:41;;;;;;;4.50;1.13;;;15.20;92.10;;;;;;5009940;28;20030;-58
2022/05/31 09:24:19;;;;;;;4.00;0.80;;;15.30;91.90;;;;;;5006476;28;20490;-58
2022/05/31 09:27:11;;;;;;;5.32;0.95;;;15.30;90.30;;;;;;5002075;28;20069;-59
2022/05/31 09:29:39;;;;;;;4.70;0.85;;;15.00;93.10;;;;;;5006565;28;20022;-59
2022/05/31 09:32:09;;;;;;;1.65;0.50;;;14.80;93.60;;;;;;5013154;28;20046;-59
2022/05/31 09:35:00;;;;;;;4.82;1.33;;;14.70;93.50;;;;;;5019275;28;20405;-59
2022/05/31 09:38:07;;;;;;;4.85;1.00;;;14.60;95.40;;;;;;5018964;28;20087;-58
2022/05/31 09:40:50;;;;;;;2.47;1.33;;;14.80;94.40;;;;;;5006134;28;20053;-58
2022/05/31 09:43:40;;;;;;;3.67;1.13;;;15.00;96.90;;;;;;5007145;28;20029;-58
2022/05/31 09:46:14;;;;;;;3.97;0.82;;;15.50;96.10;;;;;;5008946;28;20113;-59
2022/05/31 09:48:49;;;;;;;2.63;0.80;;;16.00;92.40;;;;;;5014622;28;20133;-59
2022/05/31 09:51:27;;;;;;;3.08;0.75;;;16.10;90.90;;;;;;5015125;28;20397;-59
2022/05/31 09:59:29;;;;;;;2.05;0.50;;;15.50;79.10;;;;;;5006968;28;21591;-60
2022/05/31 10:01:55;;;;;;;8.25;0.80;;;15.40;85.50;;;;;;5017692;28;20058;-58
2022/05/31 10:04:22;;;;;;;1.92;0.80;;;15.30;86.00;;;;;;5009910;28;20034;-59
2022/05/31 10:07:04;;;;;;;3.05;0.70;;;15.10;92.70;;;;;;5011991;28;20030;-61
2022/05/31 10:09:36;;;;;;;2.08;0.80;;;15.00;93.60;;;;;;5010625;28;20092;-59
2022/05/31 10:12:30;;;;;;;2.97;0.90;;;14.80;94.40;;;;;;5005611;28;20393;-59
2022/05/31 10:14:56;;;;;;;1.25;0.70;;;14.90;95.00;;;;;;5005202;28;20105;-58
2022/05/31 10:17:28;;;;;;;5.90;1.45;;;15.00;94.80;;;;;;5007951;28;20030;-58
2022/05/31 10:20:14;;;;;;;;;;;15.20;96.60;;;;;;5012986;28;20029;-58
2022/05/31 10:22:49;;;;;;;2.60;0.80;;;15.20;94.70;;;;;;5011607;28;19997;-59
2022/05/31 10:25:21;;;;;;;3.95;1.30;;;15.30;93.70;;;;;;5003937;28;20044;-57
2022/05/31 10:27:47;;;;;;;3.95;0.88;;;15.40;95.60;;;;;;5018072;28;20034;-58
2022/05/31 10:30:22;;;;;;;2.97;1.25;;;15.20;93.60;;;;;;5009740;28;20038;-58
2022/05/31 10:32:58;;;;;;;6.88;1.20;;;15.20;92.90;;;;;;5011329;28;20125;-58
2022/05/31 10:35:29;;;;;;;13.30;8.82;;;15.20;93.30;;;;;;5016284;28;20501;-58
2022/05/31 10:37:57;;;;;;;2.38;1.80;;;15.30;93.10;;;;;;5017353;28;20052;-59
2022/05/31 10:40:26;;;;;;;3.63;0.88;;;15.50;93.10;;;;;;5011777;28;20076;-59
2022/05/31 10:42:56;;;;;;;1.83;0.85;;;15.60;91.00;;;;;;5012030;28;20029;-58
2022/05/31 10:45:26;;;;;;;2.05;0.68;;;16.10;86.70;;;;;;5002564;28;20025;-59
2022/05/31 10:47:56;;;;;;;1.95;0.82;;;16.70;77.60;;;;;;5006049;28;20084;-58
2022/05/31 10:50:45;;;;;;;3.80;0.82;;;17.00;74.20;;;;;;5011835;28;20185;-58
2022/05/31 10:53:38;;;;;;;1.38;0.60;;;16.70;72.50;;;;;;5009091;28;20485;-59
2022/05/31 10:56:24;;;;;;;1.92;0.60;;;16.60;74.40;;;;;;5014494;28;20058;-57
2022/05/31 10:58:58;;;;;;;6.68;0.82;;;16.50;76.10;;;;;;5009838;28;20030;-59
2022/05/31 11:01:41;;;;;;;4.80;0.75;;;16.60;78.40;;;;;;5006522;28;20046;-58
2022/05/31 11:04:26;;;;;;;1.42;0.70;;;17.20;77.30;;;;;;5008555;28;20030;-58
2022/05/31 11:07:15;;;;;;;2.63;0.70;;;18.00;73.40;;;;;;5011385;28;20026;-58
2022/05/31 11:12:51;;;;;;;3.35;1.15;;;18.30;70.00;;;;;;5014080;28;20063;-58
2022/05/31 11:15:17;;;;;;;2.17;0.50;;;18.20;70.60;;;;;;5005885;28;20041;-58
2022/05/31 11:18:21;;;;;;;1.27;0.70;;;17.70;71.50;;;;;;5009122;28;20116;-63
2022/05/31 11:21:10;;;;;;;2.35;1.10;;;17.60;74.50;;;;;;4981038;28;20040;-59
2022/05/31 11:24:04;;;;;;;2.50;0.50;;;18.50;70.10;;;;;;4974296;28;20426;-59
2022/05/31 11:26:58;;;;;;;1.92;0.50;;;18.50;68.00;;;;;;4898375;29;20357;-59
2022/05/31 11:29:56;;;;;;;4.93;0.73;;;19.30;65.80;;;;;;4905616;29;20123;-59
2022/05/31 11:32:52;;;;;;;1.10;0.50;;;19.80;61.40;;;;;;4904363;29;20040;-58
2022/05/31 11:35:30;;;;;;;2.75;0.80;;;19.40;62.30;;;;;;4907860;29;20538;-58
2022/05/31 11:38:08;;;;;;;3.42;0.50;;;19.40;63.00;;;;;;4899915;29;20044;-59
2022/05/31 11:41:06;;;;;;;1.77;0.73;;;18.60;62.10;;;;;;4905039;29;20036;-59
2022/05/31 11:44:02;;;;;;;2.03;0.50;;;18.20;65.40;;;;;;4905124;29;20393;-59
2022/05/31 11:46:43;;;;;;;2.63;0.60;;;17.60;67.40;;;;;;4904826;29;20104;-58
2022/05/31 11:49:35;;;;;;;1.42;0.70;;;17.20;72.70;;;;;;4900495;29;20421;-59
2022/05/31 11:52:07;;;;;;;4.35;0.47;;;17.10;75.50;;;;;;4923973;29;20032;-62
2022/05/31 11:54:39;;;;;;;1.50;0.60;;;16.90;73.30;;;;;;4918158;29;20032;-58
2022/05/31 11:57:31;;;;;;;2.53;0.60;;;16.90;72.10;;;;;;4920325;28;20505;-59
2022/05/31 12:00:05;;;;;;;2.33;1.08;;;16.90;73.70;;;;;;4928283;29;20043;-59
2022/05/31 12:02:46;;;;;;;2.17;0.40;;;17.50;71.30;;;;;;4940432;28;20038;-58
2022/05/31 12:05:30;;;;;;;2.65;0.60;;;18.50;68.70;;;;;;5013761;28;20045;-58
2022/05/31 12:08:14;;;;;;;2.78;0.90;;;18.20;69.10;;;;;;5015610;28;20450;-58
2022/05/31 12:10:54;;;;;;;1.98;0.50;;;17.90;72.50;;;;;;5011325;28;20034;-59
2022/05/31 12:13:21;;;;;;;2.83;0.65;;;17.80;70.00;;;;;;5009365;28;20133;-59
2022/05/31 12:15:51;;;;;;;2.13;0.50;;;18.20;69.50;;;;;;5009160;28;20045;-59
2022/05/31 12:18:23;;;;;;;0.63;0.30;;;18.60;64.10;;;;;;5005936;28;20402;-58
2022/05/31 12:20:51;;;;;;;;;;;18.30;61.80;;;;;;5014376;28;20401;-59
2022/05/31 12:23:32;;;;;;;3.85;0.52;;;18.90;62.60;;;;;;5007923;28;19909;-59
2022/05/31 12:25:59;;;;;;;3.97;0.82;;;19.20;58.10;;;;;;5007393;28;20034;-58
2022/05/31 12:28:54;;;;;;;1.60;0.38;;;19.00;57.90;;;;;;5003532;28;20030;-57
2022/05/31 12:31:27;;;;;;;1.40;0.57;;;18.20;59.20;;;;;;5005504;28;20045;-58
2022/05/31 12:34:09;;;;;;;1.70;0.70;;;17.70;68.20;;;;;;5010499;28;20034;-56
2022/05/31 12:36:56;;;;;;;2.63;0.63;;;17.40;77.40;;;;;;5005941;28;20065;-59
2022/05/31 12:39:27;;;;;;;3.17;0.60;;;17.00;82.30;;;;;;5017870;28;20103;-58
2022/05/31 12:41:53;;;;;;;2.95;0.80;;;17.20;84.20;;;;;;5010473;28;20462;-58
2022/05/31 12:44:34;;;;;;;5.68;0.80;;;17.40;77.00;;;;;;5009883;28;20481;-58
2022/05/31 12:47:15;;;;;;;6.25;0.68;;;17.60;77.50;;;;;;5009629;28;20026;-59
2022/05/31 12:50:10;;;;;;;1.50;0.40;;;17.40;71.10;;;;;;5012591;28;20057;-58
2022/05/31 12:55:36;;;;;;;2.20;0.70;;;16.60;75.20;;;;;;5000113;28;20045;-58
2022/05/31 12:58:30;;;;;;;3.50;0.60;;;16.50;81.30;;;;;;5010163;28;20378;-58
2022/05/31 13:00:58;;;;;;;4.07;0.60;;;16.70;77.70;;;;;;5012295;28;20038;-58
2022/05/31 13:03:29;;;;;;;1.00;0.40;;;16.80;79.30;;;;;;4995586;28;20126;-58
2022/05/31 13:06:07;;;;;;;4.00;0.85;;;16.80;77.20;;;;;;5008211;28;20050;-58
2022/05/31 13:08:48;;;;;;;2.95;0.47;;;17.10;75.20;;;;;;5005819;28;20057;-58
2022/05/31 13:20:20;;;;;;;2.25;0.63;;;19.40;66.70;;;;;;4989067;28;20504;-57
2022/05/31 13:23:17;;;;;;;1.60;0.40;;;20.10;63.30;;;;;;4987042;28;20042;-59
2022/05/31 13:26:05;;;;;;;1.73;0.52;;;19.00;62.60;;;;;;4971797;28;20034;-57
2022/05/31 13:28:36;;;;;;;2.90;0.93;;;17.80;67.30;;;;;;4983999;28;20037;-58
2022/05/31 13:31:12;;;;;;;3.65;0.60;;;17.90;69.60;;;;;;4997947;28;20053;-59
2022/05/31 13:33:40;;;;;;;2.28;0.40;;;18.80;67.10;;;;;;4997307;28;20045;-58
2022/05/31 13:36:15;;;;;;;1.55;0.50;;;19.50;62.00;;;;;;4999183;28;20438;-59
2022/05/31 13:38:44;;;;;;;4.53;0.80;;;19.40;61.80;;;;;;4990004;28;20035;-59
2022/05/31 13:41:16;;;;;;;3.95;0.80;;;19.30;64.40;;;;;;4988523;28;20034;-58
2022/05/31 13:43:52;;;;;;;4.03;0.50;;;19.20;65.30;;;;;;4998665;28;20077;-58
2022/05/31 13:46:26;;;;;;;2.25;0.50;;;19.90;61.70;;;;;;4994171;28;20033;-58
2022/05/31 13:48:57;;;;;;;1.88;0.30;;;20.20;56.60;;;;;;4994283;28;20034;-58